Frost, MN

10:11 AM CDT on September 19, 2014 (GMT -0500)
Waseca Municipal | Change Station
CLOSE
Current Station
Airport
Location: Waseca,
Elevation: 1125 ft
Nearby Weather Stations

Elev 1125 ft 44.07 °N, 93.55 °W | Updated 17 minutes ago

Overcast
Overcast
61 °F
Feels Like 61 °F
N
18
Wind Variable Wind from South
Gusts 30 mph

Today
High -- | Low -- °F
--% Chance of Precip.
Yesterday
High -- | Low -- °F
Precip. -- in
6:59 AM 7:18 PM
Waning Crescent, 18% visible
Pressure 29.90 in
Visibility 10.0 miles
Clouds Scattered Clouds 2200 ft
Mostly Cloudy 4900 ft
Dew Point 50 °F
Humidity 68%
Rainfall 0.00 in
Snow Depth Not available.
UV 2 out of 12
Pollen 4.50 out of 12
Air Quality Not available.
Flu Activity Not available.
METAR KACQ 191454Z AUTO 17016G26KT 10SM SCT022 BKN049 16/10 A2990 RMK AO2

More Conditions Fewer Conditions

Pressure 29.90 in
Visibility 10.0 miles
Clouds Scattered Clouds 2200 ft
Mostly Cloudy 4900 ft
Dew Point 50 °F
Humidity 68%
Rainfall 0.00 in
Snow Depth Not available.
UV 2 out of 12
Pollen 4.50 out of 12
Air Quality Not available.
Flu Activity Not available.
METAR KACQ 191454Z AUTO 17016G26KT 10SM SCT022 BKN049 16/10 A2990 RMK AO2

More Conditions Fewer Conditions

10-Day Weather Forecast

Almanac

Astronomy

Sep. 19, 2014 Rise Set
Actual Time 6:59 AM CDT 7:18 PM CDT
Civil Twilight 6:30 AM CDT 7:47 PM CDT
Nautical Twilight 5:57 AM CDT 8:20 PM CDT
Astronomical Twilight 5:22 AM CDT 8:55 PM CDT
Moon 2:39 AM CDT 4:53 PM CDT
Length of Visible Light 13h 16m
Length of Day
12h 18m
Tomorrow will be 2m 58s shorter.
Waning Crescent, 18% of the Moon is Illuminated
Today
Waning Crescent
Sep 24
New
Oct 1
First Quarter
Oct 8
Full
Oct 15
Last Quarter

Today's Extremes

State Highs State Lows

Community

WunderPhotos

Upload Photos

1,754,634 photos uploaded!

WunderBlogs® & News

By Dr. Jeff Masters
Director of Meteorology, Weather Underground
By Kari Strenfel
Meteorologist, Weather Underground
By Christopher C. Burt
Weather Historian, Weather Underground
September 19, 2014
September 19, 2014
September 19, 2014

Nearby

Snow Depth

Station Depth Elevation
No new snow has been reported.

Earthquake Activity

City Distance Mag. Time & Date
No recent earthquake activity has been reported nearby.
Minimum magnitude displayed is 2.5.

Coastal Water Temperatures

Place Temperature
No Stations Reporting

Nearby Weather Stations